sensor_id;sensor_type;location;lat;lon;timestamp;P1;durP1;ratioP1;P2;durP2;ratioP2
36443;SDS011;24692;45.642;13.806;2023-07-20T00:00:28;5.45;;;2.35;;
36443;SDS011;24692;45.642;13.806;2023-07-20T00:03:09;5.47;;;2.05;;
36443;SDS011;24692;45.642;13.806;2023-07-20T00:05:41;6.90;;;2.28;;
36443;SDS011;24692;45.642;13.806;2023-07-20T00:08:10;4.53;;;1.95;;
36443;SDS011;24692;45.642;13.806;2023-07-20T00:10:36;4.50;;;2.15;;
36443;SDS011;24692;45.642;13.806;2023-07-20T00:13:02;4.25;;;1.85;;
36443;SDS011;24692;45.642;13.806;2023-07-20T00:15:27;4.35;;;1.92;;
36443;SDS011;24692;45.642;13.806;2023-07-20T00:17:53;5.38;;;2.13;;
36443;SDS011;24692;45.642;13.806;2023-07-20T00:20:19;3.92;;;1.90;;
36443;SDS011;24692;45.642;13.806;2023-07-20T00:22:44;4.75;;;2.50;;
36443;SDS011;24692;45.642;13.806;2023-07-20T00:25:10;6.70;;;2.38;;
36443;SDS011;24692;45.642;13.806;2023-07-20T00:27:36;5.53;;;2.13;;
36443;SDS011;24692;45.642;13.806;2023-07-20T00:30:03;4.85;;;2.38;;
36443;SDS011;24692;45.642;13.806;2023-07-20T00:32:29;4.40;;;2.13;;
36443;SDS011;24692;45.642;13.806;2023-07-20T00:34:55;5.47;;;2.20;;
36443;SDS011;24692;45.642;13.806;2023-07-20T00:37:20;3.53;;;2.33;;
36443;SDS011;24692;45.642;13.806;2023-07-20T00:39:46;6.70;;;2.45;;
36443;SDS011;24692;45.642;13.806;2023-07-20T00:42:12;4.90;;;2.40;;
36443;SDS011;24692;45.642;13.806;2023-07-20T00:44:37;7.03;;;2.60;;
36443;SDS011;24692;45.642;13.806;2023-07-20T00:47:03;6.95;;;2.45;;
36443;SDS011;24692;45.642;13.806;2023-07-20T00:49:30;5.18;;;2.33;;
36443;SDS011;24692;45.642;13.806;2023-07-20T00:51:56;5.20;;;2.28;;
36443;SDS011;24692;45.642;13.806;2023-07-20T00:54:22;4.68;;;2.38;;
36443;SDS011;24692;45.642;13.806;2023-07-20T00:56:48;4.90;;;2.25;;
36443;SDS011;24692;45.642;13.806;2023-07-20T00:59:15;7.20;;;2.92;;
36443;SDS011;24692;45.642;13.806;2023-07-20T01:01:41;5.40;;;2.78;;
36443;SDS011;24692;45.642;13.806;2023-07-20T01:04:06;6.50;;;2.42;;
36443;SDS011;24692;45.642;13.806;2023-07-20T01:09:21;5.47;;;2.30;;
36443;SDS011;24692;45.642;13.806;2023-07-20T01:12:12;4.00;;;2.30;;
36443;SDS011;24692;45.642;13.806;2023-07-20T01:14:48;7.10;;;2.55;;
36443;SDS011;24692;45.642;13.806;2023-07-20T01:17:14;5.45;;;2.33;;
36443;SDS011;24692;45.642;13.806;2023-07-20T01:19:40;4.93;;;2.08;;
36443;SDS011;24692;45.642;13.806;2023-07-20T01:22:12;9.23;;;2.67;;
36443;SDS011;24692;45.642;13.806;2023-07-20T01:30:36;5.18;;;2.40;;
36443;SDS011;24692;45.642;13.806;2023-07-20T01:33:00;5.07;;;2.58;;
36443;SDS011;24692;45.642;13.806;2023-07-20T01:35:28;5.35;;;2.55;;
36443;SDS011;24692;45.642;13.806;2023-07-20T01:37:55;5.95;;;2.78;;
36443;SDS011;24692;45.642;13.806;2023-07-20T01:40:23;5.03;;;2.38;;
36443;SDS011;24692;45.642;13.806;2023-07-20T01:42:50;3.13;;;2.17;;
36443;SDS011;24692;45.642;13.806;2023-07-20T01:45:17;5.78;;;2.53;;
36443;SDS011;24692;45.642;13.806;2023-07-20T01:47:43;3.22;;;2.22;;
36443;SDS011;24692;45.642;13.806;2023-07-20T01:50:08;3.95;;;2.33;;
36443;SDS011;24692;45.642;13.806;2023-07-20T01:52:34;5.30;;;2.53;;
36443;SDS011;24692;45.642;13.806;2023-07-20T01:55:00;5.93;;;2.78;;
36443;SDS011;24692;45.642;13.806;2023-07-20T01:57:26;5.30;;;2.40;;
36443;SDS011;24692;45.642;13.806;2023-07-20T01:59:51;4.32;;;2.55;;
36443;SDS011;24692;45.642;13.806;2023-07-20T02:02:17;5.55;;;2.70;;
36443;SDS011;24692;45.642;13.806;2023-07-20T02:04:43;5.95;;;2.40;;
36443;SDS011;24692;45.642;13.806;2023-07-20T02:07:09;4.93;;;2.45;;
36443;SDS011;24692;45.642;13.806;2023-07-20T02:09:34;6.15;;;2.60;;
36443;SDS011;24692;45.642;13.806;2023-07-20T02:12:00;5.18;;;2.42;;
36443;SDS011;24692;45.642;13.806;2023-07-20T02:14:26;3.83;;;2.20;;
36443;SDS011;24692;45.642;13.806;2023-07-20T02:16:51;5.47;;;2.40;;
36443;SDS011;24692;45.642;13.806;2023-07-20T02:19:19;4.20;;;2.50;;
36443;SDS011;24692;45.642;13.806;2023-07-20T02:21:45;4.78;;;2.47;;
36443;SDS011;24692;45.642;13.806;2023-07-20T02:24:11;6.80;;;2.67;;
36443;SDS011;24692;45.642;13.806;2023-07-20T02:26:38;5.75;;;3.03;;
36443;SDS011;24692;45.642;13.806;2023-07-20T02:29:03;5.53;;;2.70;;
36443;SDS011;24692;45.642;13.806;2023-07-20T02:31:30;4.57;;;2.45;;
36443;SDS011;24692;45.642;13.806;2023-07-20T02:33:55;6.15;;;2.60;;
36443;SDS011;24692;45.642;13.806;2023-07-20T02:36:21;5.20;;;2.65;;
36443;SDS011;24692;45.642;13.806;2023-07-20T02:38:47;8.07;;;2.70;;
36443;SDS011;24692;45.642;13.806;2023-07-20T02:41:13;4.85;;;2.88;;
36443;SDS011;24692;45.642;13.806;2023-07-20T02:43:39;3.30;;;2.58;;
36443;SDS011;24692;45.642;13.806;2023-07-20T02:46:04;5.50;;;2.50;;
36443;SDS011;24692;45.642;13.806;2023-07-20T02:48:30;6.85;;;2.92;;
36443;SDS011;24692;45.642;13.806;2023-07-20T02:50:56;5.22;;;2.58;;
36443;SDS011;24692;45.642;13.806;2023-07-20T02:53:21;5.13;;;2.45;;
36443;SDS011;24692;45.642;13.806;2023-07-20T02:55:47;4.47;;;2.72;;
36443;SDS011;24692;45.642;13.806;2023-07-20T02:58:12;4.43;;;2.40;;
36443;SDS011;24692;45.642;13.806;2023-07-20T03:00:38;4.63;;;2.20;;
36443;SDS011;24692;45.642;13.806;2023-07-20T03:03:04;7.22;;;2.85;;
36443;SDS011;24692;45.642;13.806;2023-07-20T03:05:34;8.18;;;2.42;;
36443;SDS011;24692;45.642;13.806;2023-07-20T03:08:00;5.47;;;2.85;;
36443;SDS011;24692;45.642;13.806;2023-07-20T03:10:27;5.05;;;2.85;;
36443;SDS011;24692;45.642;13.806;2023-07-20T03:12:53;6.22;;;2.83;;
36443;SDS011;24692;45.642;13.806;2023-07-20T03:15:19;7.00;;;2.70;;
36443;SDS011;24692;45.642;13.806;2023-07-20T03:17:44;5.50;;;2.70;;
36443;SDS011;24692;45.642;13.806;2023-07-20T03:20:10;3.85;;;2.50;;
36443;SDS011;24692;45.642;13.806;2023-07-20T03:22:37;5.47;;;2.67;;
36443;SDS011;24692;45.642;13.806;2023-07-20T03:25:03;6.93;;;2.67;;
36443;SDS011;24692;45.642;13.806;2023-07-20T03:27:30;4.82;;;2.60;;
36443;SDS011;24692;45.642;13.806;2023-07-20T03:29:55;6.13;;;2.50;;
36443;SDS011;24692;45.642;13.806;2023-07-20T03:32:21;6.20;;;2.70;;
36443;SDS011;24692;45.642;13.806;2023-07-20T03:34:46;7.00;;;2.55;;
36443;SDS011;24692;45.642;13.806;2023-07-20T03:37:12;6.88;;;2.60;;
36443;SDS011;24692;45.642;13.806;2023-07-20T03:39:38;8.13;;;2.65;;
36443;SDS011;24692;45.642;13.806;2023-07-20T03:42:04;5.25;;;2.40;;
36443;SDS011;24692;45.642;13.806;2023-07-20T03:44:31;4.35;;;2.60;;
36443;SDS011;24692;45.642;13.806;2023-07-20T03:46:56;7.28;;;2.90;;
36443;SDS011;24692;45.642;13.806;2023-07-20T03:49:22;5.38;;;3.03;;
36443;SDS011;24692;45.642;13.806;2023-07-20T03:51:48;8.13;;;2.90;;
36443;SDS011;24692;45.642;13.806;2023-07-20T03:54:14;6.13;;;2.67;;
36443;SDS011;24692;45.642;13.806;2023-07-20T03:56:39;4.47;;;2.40;;
36443;SDS011;24692;45.642;13.806;2023-07-20T03:59:05;5.20;;;2.45;;
36443;SDS011;24692;45.642;13.806;2023-07-20T04:01:31;5.90;;;2.60;;
36443;SDS011;24692;45.642;13.806;2023-07-20T04:04:01;7.10;;;2.60;;
36443;SDS011;24692;45.642;13.806;2023-07-20T04:06:30;4.70;;;2.72;;
36443;SDS011;24692;45.642;13.806;2023-07-20T04:08:55;6.07;;;2.22;;
36443;SDS011;24692;45.642;13.806;2023-07-20T04:11:21;6.68;;;2.97;;
36443;SDS011;24692;45.642;13.806;2023-07-20T04:13:47;6.78;;;2.55;;
36443;SDS011;24692;45.642;13.806;2023-07-20T04:16:12;6.20;;;2.30;;
36443;SDS011;24692;45.642;13.806;2023-07-20T04:18:38;4.75;;;2.60;;
36443;SDS011;24692;45.642;13.806;2023-07-20T04:21:04;4.13;;;2.13;;
36443;SDS011;24692;45.642;13.806;2023-07-20T04:23:29;4.53;;;2.47;;
36443;SDS011;24692;45.642;13.806;2023-07-20T04:25:55;4.55;;;2.20;;
36443;SDS011;24692;45.642;13.806;2023-07-20T04:28:20;5.60;;;2.60;;
36443;SDS011;24692;45.642;13.806;2023-07-20T04:30:48;8.38;;;2.83;;
36443;SDS011;24692;45.642;13.806;2023-07-20T04:33:16;4.55;;;2.10;;
36443;SDS011;24692;45.642;13.806;2023-07-20T04:35:47;3.55;;;2.10;;
36443;SDS011;24692;45.642;13.806;2023-07-20T04:38:16;6.82;;;2.42;;
36443;SDS011;24692;45.642;13.806;2023-07-20T04:40:43;4.75;;;2.25;;
36443;SDS011;24692;45.642;13.806;2023-07-20T04:43:09;4.22;;;2.47;;
36443;SDS011;24692;45.642;13.806;2023-07-20T04:45:35;5.50;;;2.63;;
36443;SDS011;24692;45.642;13.806;2023-07-20T04:48:01;4.68;;;2.30;;
36443;SDS011;24692;45.642;13.806;2023-07-20T04:50:26;6.40;;;2.50;;
36443;SDS011;24692;45.642;13.806;2023-07-20T04:52:52;6.80;;;2.30;;
36443;SDS011;24692;45.642;13.806;2023-07-20T04:55:18;3.80;;;2.25;;
36443;SDS011;24692;45.642;13.806;2023-07-20T04:57:44;4.72;;;2.35;;
36443;SDS011;24692;45.642;13.806;2023-07-20T05:00:10;5.20;;;2.60;;
36443;SDS011;24692;45.642;13.806;2023-07-20T05:02:39;6.15;;;2.55;;
36443;SDS011;24692;45.642;13.806;2023-07-20T05:05:05;6.78;;;2.35;;
36443;SDS011;24692;45.642;13.806;2023-07-20T05:07:31;7.20;;;2.33;;
36443;SDS011;24692;45.642;13.806;2023-07-20T05:09:57;5.70;;;2.70;;
36443;SDS011;24692;45.642;13.806;2023-07-20T05:12:23;5.22;;;2.40;;
36443;SDS011;24692;45.642;13.806;2023-07-20T05:14:48;5.43;;;2.40;;
36443;SDS011;24692;45.642;13.806;2023-07-20T05:17:14;6.22;;;2.42;;
36443;SDS011;24692;45.642;13.806;2023-07-20T05:19:40;4.82;;;2.28;;
36443;SDS011;24692;45.642;13.806;2023-07-20T05:22:05;8.27;;;2.42;;
36443;SDS011;24692;45.642;13.806;2023-07-20T05:24:31;3.80;;;2.20;;
36443;SDS011;24692;45.642;13.806;2023-07-20T05:26:57;6.72;;;1.90;;
36443;SDS011;24692;45.642;13.806;2023-07-20T05:29:24;4.40;;;1.98;;
36443;SDS011;24692;45.642;13.806;2023-07-20T05:31:50;4.95;;;2.10;;
36443;SDS011;24692;45.642;13.806;2023-07-20T05:34:15;6.05;;;2.20;;
36443;SDS011;24692;45.642;13.806;2023-07-20T05:36:41;4.15;;;2.17;;
36443;SDS011;24692;45.642;13.806;2023-07-20T05:39:07;2.70;;;1.60;;
36443;SDS011;24692;45.642;13.806;2023-07-20T05:41:32;6.00;;;2.03;;
36443;SDS011;24692;45.642;13.806;2023-07-20T05:43:58;2.85;;;2.10;;
36443;SDS011;24692;45.642;13.806;2023-07-20T05:46:24;4.13;;;1.95;;
36443;SDS011;24692;45.642;13.806;2023-07-20T05:48:49;4.15;;;2.17;;
36443;SDS011;24692;45.642;13.806;2023-07-20T05:51:15;3.00;;;1.70;;
36443;SDS011;24692;45.642;13.806;2023-07-20T05:53:41;5.00;;;2.45;;
36443;SDS011;24692;45.642;13.806;2023-07-20T05:56:06;8.18;;;2.47;;
36443;SDS011;24692;45.642;13.806;2023-07-20T05:58:35;8.10;;;2.72;;
36443;SDS011;24692;45.642;13.806;2023-07-20T06:01:01;3.00;;;2.13;;
36443;SDS011;24692;45.642;13.806;2023-07-20T06:03:30;5.60;;;2.70;;
36443;SDS011;24692;45.642;13.806;2023-07-20T06:06:02;2.58;;;1.98;;
36443;SDS011;24692;45.642;13.806;2023-07-20T06:08:34;2.83;;;1.63;;
36443;SDS011;24692;45.642;13.806;2023-07-20T06:10:59;3.20;;;1.70;;
36443;SDS011;24692;45.642;13.806;2023-07-20T06:13:25;4.55;;;1.70;;
36443;SDS011;24692;45.642;13.806;2023-07-20T06:15:51;3.33;;;2.13;;
36443;SDS011;24692;45.642;13.806;2023-07-20T06:18:17;1.92;;;1.50;;
36443;SDS011;24692;45.642;13.806;2023-07-20T06:20:42;3.97;;;1.73;;
36443;SDS011;24692;45.642;13.806;2023-07-20T06:23:14;3.72;;;1.90;;
36443;SDS011;24692;45.642;13.806;2023-07-20T06:25:40;3.38;;;1.95;;
36443;SDS011;24692;45.642;13.806;2023-07-20T06:28:05;2.47;;;1.80;;
36443;SDS011;24692;45.642;13.806;2023-07-20T06:30:33;3.13;;;1.90;;
36443;SDS011;24692;45.642;13.806;2023-07-20T06:32:59;6.25;;;2.10;;
36443;SDS011;24692;45.642;13.806;2023-07-20T06:35:25;1.90;;;1.70;;
36443;SDS011;24692;45.642;13.806;2023-07-20T06:37:51;3.33;;;2.03;;
36443;SDS011;24692;45.642;13.806;2023-07-20T06:40:17;6.28;;;2.10;;
36443;SDS011;24692;45.642;13.806;2023-07-20T06:42:43;4.93;;;2.15;;
36443;SDS011;24692;45.642;13.806;2023-07-20T06:45:09;3.85;;;1.85;;
36443;SDS011;24692;45.642;13.806;2023-07-20T06:47:38;2.17;;;1.95;;
36443;SDS011;24692;45.642;13.806;2023-07-20T06:50:05;6.60;;;2.47;;
36443;SDS011;24692;45.642;13.806;2023-07-20T06:52:32;3.42;;;2.13;;
36443;SDS011;24692;45.642;13.806;2023-07-20T06:54:58;3.70;;;2.10;;
36443;SDS011;24692;45.642;13.806;2023-07-20T06:57:23;4.22;;;2.10;;
36443;SDS011;24692;45.642;13.806;2023-07-20T06:59:50;3.75;;;1.90;;
36443;SDS011;24692;45.642;13.806;2023-07-20T07:02:15;2.40;;;1.73;;
36443;SDS011;24692;45.642;13.806;2023-07-20T07:04:42;2.03;;;1.70;;
36443;SDS011;24692;45.642;13.806;2023-07-20T07:07:08;6.20;;;2.03;;
36443;SDS011;24692;45.642;13.806;2023-07-20T07:09:34;4.15;;;1.90;;
36443;SDS011;24692;45.642;13.806;2023-07-20T07:12:00;3.05;;;1.80;;
36443;SDS011;24692;45.642;13.806;2023-07-20T07:14:26;2.28;;;1.92;;
36443;SDS011;24692;45.642;13.806;2023-07-20T07:16:52;4.50;;;2.03;;
36443;SDS011;24692;45.642;13.806;2023-07-20T07:19:17;3.22;;;2.10;;
36443;SDS011;24692;45.642;13.806;2023-07-20T07:21:43;5.47;;;2.20;;
36443;SDS011;24692;45.642;13.806;2023-07-20T07:24:09;3.25;;;1.95;;
36443;SDS011;24692;45.642;13.806;2023-07-20T07:26:35;2.97;;;1.70;;
36443;SDS011;24692;45.642;13.806;2023-07-20T07:29:04;4.50;;;1.88;;
36443;SDS011;24692;45.642;13.806;2023-07-20T07:31:29;3.35;;;2.20;;
36443;SDS011;24692;45.642;13.806;2023-07-20T07:33:56;4.80;;;2.28;;
36443;SDS011;24692;45.642;13.806;2023-07-20T07:36:22;2.75;;;2.20;;
36443;SDS011;24692;45.642;13.806;2023-07-20T07:38:49;2.70;;;1.80;;
36443;SDS011;24692;45.642;13.806;2023-07-20T07:41:15;4.55;;;1.95;;
36443;SDS011;24692;45.642;13.806;2023-07-20T07:43:41;7.13;;;2.20;;
36443;SDS011;24692;45.642;13.806;2023-07-20T07:46:07;3.35;;;2.13;;
36443;SDS011;24692;45.642;13.806;2023-07-20T07:48:32;3.42;;;1.98;;
36443;SDS011;24692;45.642;13.806;2023-07-20T07:50:58;2.83;;;1.95;;
36443;SDS011;24692;45.642;13.806;2023-07-20T07:53:24;3.33;;;2.10;;
36443;SDS011;24692;45.642;13.806;2023-07-20T07:55:51;2.63;;;1.92;;
36443;SDS011;24692;45.642;13.806;2023-07-20T07:58:17;5.03;;;2.03;;
36443;SDS011;24692;45.642;13.806;2023-07-20T08:00:42;3.63;;;1.95;;
36443;SDS011;24692;45.642;13.806;2023-07-20T08:03:09;4.32;;;2.35;;
36443;SDS011;24692;45.642;13.806;2023-07-20T08:05:35;3.20;;;2.58;;
36443;SDS011;24692;45.642;13.806;2023-07-20T08:08:04;5.13;;;2.58;;
36443;SDS011;24692;45.642;13.806;2023-07-20T08:10:30;3.45;;;2.38;;
36443;SDS011;24692;45.642;13.806;2023-07-20T08:12:56;5.05;;;2.30;;
36443;SDS011;24692;45.642;13.806;2023-07-20T08:15:22;3.60;;;2.15;;
36443;SDS011;24692;45.642;13.806;2023-07-20T08:17:48;3.88;;;2.30;;
36443;SDS011;24692;45.642;13.806;2023-07-20T08:20:14;4.53;;;2.78;;
36443;SDS011;24692;45.642;13.806;2023-07-20T08:22:42;4.25;;;2.60;;
36443;SDS011;24692;45.642;13.806;2023-07-20T08:25:08;5.05;;;2.80;;
36443;SDS011;24692;45.642;13.806;2023-07-20T08:27:34;3.50;;;2.65;;
36443;SDS011;24692;45.642;13.806;2023-07-20T08:30:00;3.58;;;2.70;;
36443;SDS011;24692;45.642;13.806;2023-07-20T08:32:26;6.25;;;2.60;;
36443;SDS011;24692;45.642;13.806;2023-07-20T08:34:52;3.97;;;2.60;;
36443;SDS011;24692;45.642;13.806;2023-07-20T08:37:17;3.17;;;2.50;;
36443;SDS011;24692;45.642;13.806;2023-07-20T08:39:43;4.55;;;2.58;;
36443;SDS011;24692;45.642;13.806;2023-07-20T08:42:09;5.30;;;2.67;;
36443;SDS011;24692;45.642;13.806;2023-07-20T08:44:36;4.82;;;2.72;;
36443;SDS011;24692;45.642;13.806;2023-07-20T08:47:04;3.60;;;2.40;;
36443;SDS011;24692;45.642;13.806;2023-07-20T08:49:35;3.88;;;2.50;;
36443;SDS011;24692;45.642;13.806;2023-07-20T08:52:03;3.88;;;2.70;;
36443;SDS011;24692;45.642;13.806;2023-07-20T08:54:30;4.40;;;2.60;;
36443;SDS011;24692;45.642;13.806;2023-07-20T08:57:02;7.82;;;3.30;;
36443;SDS011;24692;45.642;13.806;2023-07-20T08:59:29;4.10;;;2.53;;
36443;SDS011;24692;45.642;13.806;2023-07-20T09:01:58;4.75;;;2.65;;
36443;SDS011;24692;45.642;13.806;2023-07-20T09:04:24;3.65;;;2.63;;
36443;SDS011;24692;45.642;13.806;2023-07-20T09:06:50;5.32;;;2.90;;
36443;SDS011;24692;45.642;13.806;2023-07-20T09:09:16;4.07;;;2.72;;
36443;SDS011;24692;45.642;13.806;2023-07-20T09:11:42;3.97;;;2.50;;
36443;SDS011;24692;45.642;13.806;2023-07-20T09:14:08;5.18;;;2.72;;
36443;SDS011;24692;45.642;13.806;2023-07-20T09:16:51;4.22;;;2.67;;
36443;SDS011;24692;45.642;13.806;2023-07-20T09:19:19;4.40;;;2.47;;
36443;SDS011;24692;45.642;13.806;2023-07-20T09:21:49;2.75;;;2.28;;
36443;SDS011;24692;45.642;13.806;2023-07-20T09:24:16;5.18;;;3.00;;
36443;SDS011;24692;45.642;13.806;2023-07-20T09:26:44;4.03;;;2.78;;
36443;SDS011;24692;45.642;13.806;2023-07-20T09:29:10;3.15;;;2.72;;
36443;SDS011;24692;45.642;13.806;2023-07-20T09:31:36;4.70;;;2.92;;
36443;SDS011;24692;45.642;13.806;2023-07-20T09:34:03;4.18;;;2.88;;
36443;SDS011;24692;45.642;13.806;2023-07-20T09:36:31;5.95;;;3.13;;
36443;SDS011;24692;45.642;13.806;2023-07-20T09:39:02;4.72;;;3.17;;
36443;SDS011;24692;45.642;13.806;2023-07-20T09:41:29;4.43;;;2.63;;
36443;SDS011;24692;45.642;13.806;2023-07-20T09:44:04;4.15;;;2.90;;
36443;SDS011;24692;45.642;13.806;2023-07-20T09:46:40;2.72;;;2.50;;
36443;SDS011;24692;45.642;13.806;2023-07-20T09:49:08;2.88;;;2.60;;
36443;SDS011;24692;45.642;13.806;2023-07-20T09:51:34;3.83;;;3.00;;
36443;SDS011;24692;45.642;13.806;2023-07-20T09:54:00;4.32;;;2.95;;
36443;SDS011;24692;45.642;13.806;2023-07-20T09:56:28;4.38;;;2.92;;
36443;SDS011;24692;45.642;13.806;2023-07-20T09:58:56;3.88;;;2.80;;
36443;SDS011;24692;45.642;13.806;2023-07-20T10:01:22;5.47;;;2.95;;
36443;SDS011;24692;45.642;13.806;2023-07-20T10:03:48;4.72;;;3.03;;
36443;SDS011;24692;45.642;13.806;2023-07-20T10:06:20;5.18;;;3.00;;
36443;SDS011;24692;45.642;13.806;2023-07-20T10:08:53;6.05;;;3.13;;
36443;SDS011;24692;45.642;13.806;2023-07-20T10:11:25;3.70;;;3.00;;
36443;SDS011;24692;45.642;13.806;2023-07-20T10:13:53;3.72;;;2.70;;
36443;SDS011;24692;45.642;13.806;2023-07-20T10:16:31;3.65;;;3.00;;
36443;SDS011;24692;45.642;13.806;2023-07-20T10:21:31;3.35;;;2.92;;
36443;SDS011;24692;45.642;13.806;2023-07-20T10:24:00;3.40;;;3.03;;
36443;SDS011;24692;45.642;13.806;2023-07-20T10:26:27;3.60;;;3.13;;
36443;SDS011;24692;45.642;13.806;2023-07-20T10:28:53;5.43;;;3.25;;
36443;SDS011;24692;45.642;13.806;2023-07-20T10:31:20;4.57;;;2.88;;
36443;SDS011;24692;45.642;13.806;2023-07-20T10:33:48;4.47;;;2.88;;
36443;SDS011;24692;45.642;13.806;2023-07-20T10:36:15;5.40;;;3.20;;
36443;SDS011;24692;45.642;13.806;2023-07-20T10:38:42;3.72;;;2.72;;
36443;SDS011;24692;45.642;13.806;2023-07-20T10:41:21;4.65;;;2.97;;
36443;SDS011;24692;45.642;13.806;2023-07-20T10:43:50;3.88;;;3.00;;
36443;SDS011;24692;45.642;13.806;2023-07-20T10:49:03;4.50;;;3.00;;
36443;SDS011;24692;45.642;13.806;2023-07-20T10:51:38;3.78;;;2.67;;
36443;SDS011;24692;45.642;13.806;2023-07-20T10:54:07;3.53;;;3.05;;
36443;SDS011;24692;45.642;13.806;2023-07-20T10:56:34;3.60;;;2.78;;
36443;SDS011;24692;45.642;13.806;2023-07-20T10:59:00;5.47;;;2.90;;
36443;SDS011;24692;45.642;13.806;2023-07-20T11:01:29;7.95;;;3.20;;
36443;SDS011;24692;45.642;13.806;2023-07-20T11:03:59;9.85;;;3.90;;
36443;SDS011;24692;45.642;13.806;2023-07-20T11:08:55;9.15;;;3.63;;
36443;SDS011;24692;45.642;13.806;2023-07-20T11:13:56;7.40;;;3.80;;
36443;SDS011;24692;45.642;13.806;2023-07-20T11:16:41;6.15;;;3.50;;
36443;SDS011;24692;45.642;13.806;2023-07-20T11:21:50;9.43;;;3.90;;
36443;SDS011;24692;45.642;13.806;2023-07-20T11:24:17;10.10;;;3.67;;
36443;SDS011;24692;45.642;13.806;2023-07-20T11:26:44;7.90;;;3.28;;
36443;SDS011;24692;45.642;13.806;2023-07-20T11:29:13;10.85;;;3.40;;
36443;SDS011;24692;45.642;13.806;2023-07-20T11:31:41;7.75;;;3.45;;
36443;SDS011;24692;45.642;13.806;2023-07-20T11:34:10;7.40;;;3.33;;
36443;SDS011;24692;45.642;13.806;2023-07-20T11:36:39;9.02;;;3.35;;
36443;SDS011;24692;45.642;13.806;2023-07-20T11:39:07;10.02;;;3.90;;
36443;SDS011;24692;45.642;13.806;2023-07-20T11:41:34;8.27;;;3.83;;
36443;SDS011;24692;45.642;13.806;2023-07-20T11:44:00;9.40;;;4.30;;
36443;SDS011;24692;45.642;13.806;2023-07-20T11:46:27;10.05;;;4.18;;
36443;SDS011;24692;45.642;13.806;2023-07-20T11:48:57;12.20;;;3.70;;
36443;SDS011;24692;45.642;13.806;2023-07-20T11:51:24;8.70;;;3.63;;
36443;SDS011;24692;45.642;13.806;2023-07-20T11:53:54;9.23;;;4.03;;
36443;SDS011;24692;45.642;13.806;2023-07-20T11:56:20;6.72;;;3.88;;
36443;SDS011;24692;45.642;13.806;2023-07-20T11:58:48;7.60;;;3.38;;
36443;SDS011;24692;45.642;13.806;2023-07-20T12:01:14;8.57;;;3.33;;
36443;SDS011;24692;45.642;13.806;2023-07-20T12:03:43;4.50;;;3.17;;
36443;SDS011;24692;45.642;13.806;2023-07-20T12:06:10;7.53;;;3.03;;
36443;SDS011;24692;45.642;13.806;2023-07-20T12:08:39;6.53;;;2.90;;
36443;SDS011;24692;45.642;13.806;2023-07-20T12:11:07;10.18;;;3.15;;
36443;SDS011;24692;45.642;13.806;2023-07-20T12:13:36;6.38;;;3.20;;
36443;SDS011;24692;45.642;13.806;2023-07-20T12:16:15;6.60;;;3.05;;
36443;SDS011;24692;45.642;13.806;2023-07-20T12:18:42;6.30;;;3.15;;
36443;SDS011;24692;45.642;13.806;2023-07-20T12:21:09;7.80;;;3.50;;
36443;SDS011;24692;45.642;13.806;2023-07-20T12:23:38;7.22;;;2.90;;
36443;SDS011;24692;45.642;13.806;2023-07-20T12:26:10;6.72;;;2.92;;
36443;SDS011;24692;45.642;13.806;2023-07-20T12:28:39;8.50;;;2.88;;
36443;SDS011;24692;45.642;13.806;2023-07-20T12:31:06;4.70;;;2.72;;
36443;SDS011;24692;45.642;13.806;2023-07-20T12:33:32;7.15;;;3.33;;
36443;SDS011;24692;45.642;13.806;2023-07-20T12:35:59;7.03;;;2.67;;
36443;SDS011;24692;45.642;13.806;2023-07-20T12:38:26;5.43;;;3.00;;
36443;SDS011;24692;45.642;13.806;2023-07-20T12:40:52;5.28;;;2.85;;
36443;SDS011;24692;45.642;13.806;2023-07-20T12:43:20;6.60;;;2.90;;
36443;SDS011;24692;45.642;13.806;2023-07-20T12:45:46;6.50;;;2.75;;
36443;SDS011;24692;45.642;13.806;2023-07-20T12:48:12;4.35;;;2.78;;
36443;SDS011;24692;45.642;13.806;2023-07-20T12:50:37;9.02;;;2.90;;
36443;SDS011;24692;45.642;13.806;2023-07-20T12:53:03;6.60;;;2.78;;
36443;SDS011;24692;45.642;13.806;2023-07-20T12:55:29;7.60;;;2.97;;
36443;SDS011;24692;45.642;13.806;2023-07-20T12:57:55;7.30;;;2.78;;
36443;SDS011;24692;45.642;13.806;2023-07-20T13:00:20;6.07;;;2.78;;
36443;SDS011;24692;45.642;13.806;2023-07-20T13:02:49;8.38;;;2.88;;
36443;SDS011;24692;45.642;13.806;2023-07-20T13:05:16;6.57;;;2.70;;
36443;SDS011;24692;45.642;13.806;2023-07-20T13:07:42;7.35;;;3.05;;
36443;SDS011;24692;45.642;13.806;2023-07-20T13:10:08;4.50;;;2.70;;
36443;SDS011;24692;45.642;13.806;2023-07-20T13:12:35;7.22;;;2.83;;
36443;SDS011;24692;45.642;13.806;2023-07-20T13:15:02;6.90;;;2.33;;
36443;SDS011;24692;45.642;13.806;2023-07-20T13:17:31;5.53;;;2.80;;
36443;SDS011;24692;45.642;13.806;2023-07-20T13:19:58;6.85;;;2.38;;
36443;SDS011;24692;45.642;13.806;2023-07-20T13:22:23;5.97;;;2.92;;
36443;SDS011;24692;45.642;13.806;2023-07-20T13:24:49;3.38;;;2.38;;
36443;SDS011;24692;45.642;13.806;2023-07-20T13:27:16;5.47;;;2.70;;
36443;SDS011;24692;45.642;13.806;2023-07-20T13:29:42;4.88;;;2.60;;
36443;SDS011;24692;45.642;13.806;2023-07-20T13:32:08;6.93;;;2.80;;
36443;SDS011;24692;45.642;13.806;2023-07-20T13:34:34;4.10;;;2.53;;
36443;SDS011;24692;45.642;13.806;2023-07-20T13:37:00;5.78;;;2.70;;
36443;SDS011;24692;45.642;13.806;2023-07-20T13:39:27;4.93;;;2.45;;
36443;SDS011;24692;45.642;13.806;2023-07-20T13:41:53;4.55;;;2.38;;
36443;SDS011;24692;45.642;13.806;2023-07-20T13:44:19;5.32;;;2.40;;
36443;SDS011;24692;45.642;13.806;2023-07-20T13:46:46;4.35;;;2.40;;
36443;SDS011;24692;45.642;13.806;2023-07-20T13:49:12;4.97;;;2.72;;
36443;SDS011;24692;45.642;13.806;2023-07-20T13:51:38;6.35;;;2.65;;
36443;SDS011;24692;45.642;13.806;2023-07-20T13:54:05;3.85;;;2.30;;
36443;SDS011;24692;45.642;13.806;2023-07-20T13:56:31;4.93;;;2.60;;
36443;SDS011;24692;45.642;13.806;2023-07-20T13:58:57;4.13;;;2.85;;
36443;SDS011;24692;45.642;13.806;2023-07-20T14:01:22;6.10;;;2.67;;
36443;SDS011;24692;45.642;13.806;2023-07-20T14:03:49;6.90;;;2.80;;
36443;SDS011;24692;45.642;13.806;2023-07-20T14:06:15;5.07;;;2.63;;
36443;SDS011;24692;45.642;13.806;2023-07-20T14:08:42;5.57;;;2.33;;
36443;SDS011;24692;45.642;13.806;2023-07-20T14:11:11;6.78;;;2.50;;
36443;SDS011;24692;45.642;13.806;2023-07-20T14:13:37;6.30;;;2.17;;
36443;SDS011;24692;45.642;13.806;2023-07-20T14:16:03;5.07;;;2.50;;
36443;SDS011;24692;45.642;13.806;2023-07-20T14:18:29;6.13;;;2.53;;
36443;SDS011;24692;45.642;13.806;2023-07-20T14:20:55;4.63;;;2.50;;
36443;SDS011;24692;45.642;13.806;2023-07-20T14:23:20;7.75;;;2.60;;
36443;SDS011;24692;45.642;13.806;2023-07-20T14:25:46;3.55;;;2.40;;
36443;SDS011;24692;45.642;13.806;2023-07-20T14:28:13;5.15;;;2.33;;
36443;SDS011;24692;45.642;13.806;2023-07-20T14:30:39;5.03;;;2.53;;
36443;SDS011;24692;45.642;13.806;2023-07-20T14:33:05;5.60;;;2.40;;
36443;SDS011;24692;45.642;13.806;2023-07-20T14:35:30;4.20;;;2.47;;
36443;SDS011;24692;45.642;13.806;2023-07-20T14:37:56;6.13;;;2.58;;
36443;SDS011;24692;45.642;13.806;2023-07-20T14:40:22;4.13;;;2.40;;
36443;SDS011;24692;45.642;13.806;2023-07-20T14:42:47;5.13;;;2.40;;
36443;SDS011;24692;45.642;13.806;2023-07-20T14:45:13;4.43;;;2.50;;
36443;SDS011;24692;45.642;13.806;2023-07-20T14:47:39;6.93;;;2.97;;
36443;SDS011;24692;45.642;13.806;2023-07-20T14:50:05;5.70;;;2.67;;
36443;SDS011;24692;45.642;13.806;2023-07-20T14:52:31;4.47;;;2.20;;